sensor_id;sensor_type;location;lat;lon;timestamp;P1;durP1;ratioP1;P2;durP2;ratioP2
27223;SDS011;14965;50.660;13.226;2022-07-19T00:01:06;4.93;;;2.20;;
27223;SDS011;14965;50.660;13.226;2022-07-19T00:03:32;5.90;;;1.92;;
27223;SDS011;14965;50.660;13.226;2022-07-19T00:05:57;8.13;;;2.33;;
27223;SDS011;14965;50.660;13.226;2022-07-19T00:08:23;3.90;;;1.95;;
27223;SDS011;14965;50.660;13.226;2022-07-19T00:10:49;4.85;;;2.00;;
27223;SDS011;14965;50.660;13.226;2022-07-19T00:13:15;6.00;;;1.92;;
27223;SDS011;14965;50.660;13.226;2022-07-19T00:15:42;5.05;;;2.30;;
27223;SDS011;14965;50.660;13.226;2022-07-19T00:18:08;4.88;;;2.28;;
27223;SDS011;14965;50.660;13.226;2022-07-19T00:20:34;5.07;;;2.13;;
27223;SDS011;14965;50.660;13.226;2022-07-19T00:23:00;5.80;;;2.00;;
27223;SDS011;14965;50.660;13.226;2022-07-19T00:25:25;5.68;;;2.22;;
27223;SDS011;14965;50.660;13.226;2022-07-19T00:27:51;7.05;;;2.25;;
27223;SDS011;14965;50.660;13.226;2022-07-19T00:30:17;5.13;;;2.17;;
27223;SDS011;14965;50.660;13.226;2022-07-19T00:32:44;7.43;;;2.28;;
27223;SDS011;14965;50.660;13.226;2022-07-19T00:35:10;7.93;;;2.33;;
27223;SDS011;14965;50.660;13.226;2022-07-19T00:37:36;3.20;;;1.95;;
27223;SDS011;14965;50.660;13.226;2022-07-19T00:40:03;7.15;;;2.40;;
27223;SDS011;14965;50.660;13.226;2022-07-19T00:42:30;6.75;;;2.50;;
27223;SDS011;14965;50.660;13.226;2022-07-19T00:44:55;7.30;;;2.30;;
27223;SDS011;14965;50.660;13.226;2022-07-19T00:47:21;6.40;;;2.35;;
27223;SDS011;14965;50.660;13.226;2022-07-19T00:49:49;5.80;;;2.30;;
27223;SDS011;14965;50.660;13.226;2022-07-19T00:52:15;9.98;;;2.15;;
27223;SDS011;14965;50.660;13.226;2022-07-19T00:54:45;4.25;;;2.17;;
27223;SDS011;14965;50.660;13.226;2022-07-19T00:57:13;5.43;;;2.08;;
27223;SDS011;14965;50.660;13.226;2022-07-19T00:59:41;6.47;;;2.20;;
27223;SDS011;14965;50.660;13.226;2022-07-19T01:02:07;7.20;;;2.60;;
27223;SDS011;14965;50.660;13.226;2022-07-19T01:04:37;5.45;;;1.95;;
27223;SDS011;14965;50.660;13.226;2022-07-19T01:07:04;6.32;;;2.28;;
27223;SDS011;14965;50.660;13.226;2022-07-19T01:09:33;7.40;;;2.10;;
27223;SDS011;14965;50.660;13.226;2022-07-19T01:12:01;8.02;;;2.38;;
27223;SDS011;14965;50.660;13.226;2022-07-19T01:14:27;4.95;;;2.20;;
27223;SDS011;14965;50.660;13.226;2022-07-19T01:16:53;3.15;;;2.10;;
27223;SDS011;14965;50.660;13.226;2022-07-19T01:19:19;5.00;;;2.20;;
27223;SDS011;14965;50.660;13.226;2022-07-19T01:21:46;4.68;;;2.00;;
27223;SDS011;14965;50.660;13.226;2022-07-19T01:24:12;4.50;;;2.00;;
27223;SDS011;14965;50.660;13.226;2022-07-19T01:26:38;4.68;;;2.30;;
27223;SDS011;14965;50.660;13.226;2022-07-19T01:29:04;6.43;;;2.20;;
27223;SDS011;14965;50.660;13.226;2022-07-19T01:31:30;8.60;;;2.30;;
27223;SDS011;14965;50.660;13.226;2022-07-19T01:33:55;6.20;;;2.25;;
27223;SDS011;14965;50.660;13.226;2022-07-19T01:36:21;6.65;;;2.10;;
27223;SDS011;14965;50.660;13.226;2022-07-19T01:38:48;5.63;;;2.20;;
27223;SDS011;14965;50.660;13.226;2022-07-19T01:41:14;6.50;;;1.95;;
27223;SDS011;14965;50.660;13.226;2022-07-19T01:43:40;4.63;;;2.08;;
27223;SDS011;14965;50.660;13.226;2022-07-19T01:46:06;7.22;;;2.17;;
27223;SDS011;14965;50.660;13.226;2022-07-19T01:48:32;5.28;;;2.00;;
27223;SDS011;14965;50.660;13.226;2022-07-19T01:50:58;7.97;;;2.10;;
27223;SDS011;14965;50.660;13.226;2022-07-19T01:53:24;10.10;;;2.35;;
27223;SDS011;14965;50.660;13.226;2022-07-19T01:55:51;5.05;;;2.10;;
27223;SDS011;14965;50.660;13.226;2022-07-19T01:58:17;6.32;;;2.15;;
27223;SDS011;14965;50.660;13.226;2022-07-19T02:00:43;8.20;;;1.92;;
27223;SDS011;14965;50.660;13.226;2022-07-19T02:03:09;6.43;;;1.75;;
27223;SDS011;14965;50.660;13.226;2022-07-19T02:05:35;5.65;;;2.03;;
27223;SDS011;14965;50.660;13.226;2022-07-19T02:08:01;3.67;;;2.15;;
27223;SDS011;14965;50.660;13.226;2022-07-19T02:10:27;3.67;;;1.88;;
27223;SDS011;14965;50.660;13.226;2022-07-19T02:12:55;5.60;;;2.30;;
27223;SDS011;14965;50.660;13.226;2022-07-19T02:15:21;10.27;;;2.53;;
27223;SDS011;14965;50.660;13.226;2022-07-19T02:17:47;5.20;;;2.10;;
27223;SDS011;14965;50.660;13.226;2022-07-19T02:20:13;5.60;;;2.33;;
27223;SDS011;14965;50.660;13.226;2022-07-19T02:22:38;6.45;;;2.03;;
27223;SDS011;14965;50.660;13.226;2022-07-19T02:25:05;4.35;;;2.30;;
27223;SDS011;14965;50.660;13.226;2022-07-19T02:27:32;6.90;;;2.53;;
27223;SDS011;14965;50.660;13.226;2022-07-19T02:29:59;9.23;;;2.47;;
27223;SDS011;14965;50.660;13.226;2022-07-19T02:32:25;5.07;;;2.33;;
27223;SDS011;14965;50.660;13.226;2022-07-19T02:34:51;6.30;;;2.35;;
27223;SDS011;14965;50.660;13.226;2022-07-19T02:37:16;5.63;;;2.55;;
27223;SDS011;14965;50.660;13.226;2022-07-19T02:39:42;5.93;;;2.40;;
27223;SDS011;14965;50.660;13.226;2022-07-19T02:42:08;8.73;;;2.65;;
27223;SDS011;14965;50.660;13.226;2022-07-19T02:44:34;4.38;;;2.30;;
27223;SDS011;14965;50.660;13.226;2022-07-19T02:47:01;8.77;;;2.35;;
27223;SDS011;14965;50.660;13.226;2022-07-19T02:49:27;6.47;;;2.55;;
27223;SDS011;14965;50.660;13.226;2022-07-19T02:51:53;12.18;;;2.70;;
27223;SDS011;14965;50.660;13.226;2022-07-19T02:54:18;7.18;;;2.80;;
27223;SDS011;14965;50.660;13.226;2022-07-19T02:56:44;7.90;;;2.95;;
27223;SDS011;14965;50.660;13.226;2022-07-19T02:59:10;7.57;;;2.83;;
27223;SDS011;14965;50.660;13.226;2022-07-19T03:01:36;8.32;;;2.80;;
27223;SDS011;14965;50.660;13.226;2022-07-19T03:04:03;7.78;;;3.00;;
27223;SDS011;14965;50.660;13.226;2022-07-19T03:06:29;9.25;;;2.95;;
27223;SDS011;14965;50.660;13.226;2022-07-19T03:08:55;6.60;;;2.85;;
27223;SDS011;14965;50.660;13.226;2022-07-19T03:11:21;5.82;;;3.22;;
27223;SDS011;14965;50.660;13.226;2022-07-19T03:13:47;7.07;;;2.70;;
27223;SDS011;14965;50.660;13.226;2022-07-19T03:16:13;8.90;;;2.90;;
27223;SDS011;14965;50.660;13.226;2022-07-19T03:18:39;6.43;;;2.72;;
27223;SDS011;14965;50.660;13.226;2022-07-19T03:21:06;6.55;;;2.95;;
27223;SDS011;14965;50.660;13.226;2022-07-19T03:23:32;7.07;;;3.00;;
27223;SDS011;14965;50.660;13.226;2022-07-19T03:26:00;10.18;;;3.40;;
27223;SDS011;14965;50.660;13.226;2022-07-19T03:28:26;8.13;;;3.05;;
27223;SDS011;14965;50.660;13.226;2022-07-19T03:30:52;9.35;;;2.85;;
27223;SDS011;14965;50.660;13.226;2022-07-19T03:33:18;10.88;;;3.30;;
27223;SDS011;14965;50.660;13.226;2022-07-19T03:35:44;6.53;;;2.67;;
27223;SDS011;14965;50.660;13.226;2022-07-19T03:38:13;7.53;;;2.92;;
27223;SDS011;14965;50.660;13.226;2022-07-19T03:40:39;9.73;;;3.47;;
27223;SDS011;14965;50.660;13.226;2022-07-19T03:43:05;6.75;;;2.90;;
27223;SDS011;14965;50.660;13.226;2022-07-19T03:45:31;6.95;;;3.20;;
27223;SDS011;14965;50.660;13.226;2022-07-19T03:47:58;6.63;;;3.25;;
27223;SDS011;14965;50.660;13.226;2022-07-19T03:50:24;6.20;;;2.80;;
27223;SDS011;14965;50.660;13.226;2022-07-19T03:52:49;7.80;;;3.17;;
27223;SDS011;14965;50.660;13.226;2022-07-19T03:55:17;9.10;;;3.50;;
27223;SDS011;14965;50.660;13.226;2022-07-19T03:57:43;9.45;;;3.00;;
27223;SDS011;14965;50.660;13.226;2022-07-19T04:00:10;8.45;;;3.22;;
27223;SDS011;14965;50.660;13.226;2022-07-19T04:02:36;8.43;;;3.00;;
27223;SDS011;14965;50.660;13.226;2022-07-19T04:05:02;6.13;;;3.03;;
27223;SDS011;14965;50.660;13.226;2022-07-19T04:07:28;6.47;;;3.13;;
27223;SDS011;14965;50.660;13.226;2022-07-19T04:09:54;7.35;;;3.25;;
27223;SDS011;14965;50.660;13.226;2022-07-19T04:12:21;10.25;;;3.80;;
27223;SDS011;14965;50.660;13.226;2022-07-19T04:14:47;7.60;;;3.28;;
27223;SDS011;14965;50.660;13.226;2022-07-19T04:17:13;8.13;;;3.13;;
27223;SDS011;14965;50.660;13.226;2022-07-19T04:19:39;7.57;;;3.10;;
27223;SDS011;14965;50.660;13.226;2022-07-19T04:22:05;6.78;;;3.22;;
27223;SDS011;14965;50.660;13.226;2022-07-19T04:24:31;5.18;;;2.90;;
27223;SDS011;14965;50.660;13.226;2022-07-19T04:26:59;7.07;;;3.10;;
27223;SDS011;14965;50.660;13.226;2022-07-19T04:29:26;9.57;;;3.50;;
27223;SDS011;14965;50.660;13.226;2022-07-19T04:31:52;7.50;;;3.40;;
27223;SDS011;14965;50.660;13.226;2022-07-19T04:34:18;5.78;;;3.33;;
27223;SDS011;14965;50.660;13.226;2022-07-19T04:36:44;7.18;;;3.47;;
27223;SDS011;14965;50.660;13.226;2022-07-19T04:39:10;8.40;;;3.08;;
27223;SDS011;14965;50.660;13.226;2022-07-19T04:41:36;7.72;;;3.22;;
27223;SDS011;14965;50.660;13.226;2022-07-19T04:44:02;8.40;;;3.50;;
27223;SDS011;14965;50.660;13.226;2022-07-19T04:46:29;8.15;;;3.28;;
27223;SDS011;14965;50.660;13.226;2022-07-19T04:48:55;5.13;;;2.88;;
27223;SDS011;14965;50.660;13.226;2022-07-19T04:51:21;9.13;;;3.83;;
27223;SDS011;14965;50.660;13.226;2022-07-19T04:53:47;6.25;;;2.90;;
27223;SDS011;14965;50.660;13.226;2022-07-19T04:56:12;8.05;;;3.13;;
27223;SDS011;14965;50.660;13.226;2022-07-19T04:58:38;8.18;;;3.47;;
27223;SDS011;14965;50.660;13.226;2022-07-19T05:01:05;7.95;;;3.72;;
27223;SDS011;14965;50.660;13.226;2022-07-19T05:03:32;7.60;;;3.28;;
27223;SDS011;14965;50.660;13.226;2022-07-19T05:05:58;10.40;;;3.17;;
27223;SDS011;14965;50.660;13.226;2022-07-19T05:08:24;11.93;;;3.33;;
27223;SDS011;14965;50.660;13.226;2022-07-19T05:10:49;6.57;;;3.70;;
27223;SDS011;14965;50.660;13.226;2022-07-19T05:13:15;11.13;;;3.72;;
27223;SDS011;14965;50.660;13.226;2022-07-19T05:15:41;7.32;;;3.22;;
27223;SDS011;14965;50.660;13.226;2022-07-19T05:18:07;7.18;;;3.10;;
27223;SDS011;14965;50.660;13.226;2022-07-19T05:20:34;9.68;;;3.60;;
27223;SDS011;14965;50.660;13.226;2022-07-19T05:23:00;7.03;;;3.45;;
27223;SDS011;14965;50.660;13.226;2022-07-19T05:25:26;7.43;;;3.30;;
27223;SDS011;14965;50.660;13.226;2022-07-19T05:27:52;8.48;;;3.13;;
27223;SDS011;14965;50.660;13.226;2022-07-19T05:30:17;7.03;;;3.55;;
27223;SDS011;14965;50.660;13.226;2022-07-19T05:32:43;5.63;;;3.00;;
27223;SDS011;14965;50.660;13.226;2022-07-19T05:35:09;7.03;;;3.00;;
27223;SDS011;14965;50.660;13.226;2022-07-19T05:37:36;6.95;;;3.05;;
27223;SDS011;14965;50.660;13.226;2022-07-19T05:40:02;7.03;;;3.05;;
27223;SDS011;14965;50.660;13.226;2022-07-19T05:42:29;7.93;;;3.60;;
27223;SDS011;14965;50.660;13.226;2022-07-19T05:44:55;7.28;;;3.38;;
27223;SDS011;14965;50.660;13.226;2022-07-19T05:47:21;6.28;;;3.40;;
27223;SDS011;14965;50.660;13.226;2022-07-19T05:49:47;8.13;;;3.08;;
27223;SDS011;14965;50.660;13.226;2022-07-19T05:52:13;6.65;;;3.00;;
27223;SDS011;14965;50.660;13.226;2022-07-19T05:54:40;5.20;;;2.97;;
27223;SDS011;14965;50.660;13.226;2022-07-19T05:57:06;7.50;;;3.10;;
27223;SDS011;14965;50.660;13.226;2022-07-19T05:59:31;7.28;;;3.10;;
27223;SDS011;14965;50.660;13.226;2022-07-19T06:01:57;5.90;;;2.97;;
27223;SDS011;14965;50.660;13.226;2022-07-19T06:04:23;7.53;;;3.22;;
27223;SDS011;14965;50.660;13.226;2022-07-19T06:06:49;6.80;;;2.90;;
27223;SDS011;14965;50.660;13.226;2022-07-19T06:09:15;5.45;;;2.90;;
27223;SDS011;14965;50.660;13.226;2022-07-19T06:11:42;10.68;;;3.33;;
27223;SDS011;14965;50.660;13.226;2022-07-19T06:14:08;5.80;;;2.92;;
27223;SDS011;14965;50.660;13.226;2022-07-19T06:16:34;7.38;;;3.10;;
27223;SDS011;14965;50.660;13.226;2022-07-19T06:19:01;8.13;;;3.22;;
27223;SDS011;14965;50.660;13.226;2022-07-19T06:21:27;7.65;;;2.67;;
27223;SDS011;14965;50.660;13.226;2022-07-19T06:23:53;6.60;;;3.05;;
27223;SDS011;14965;50.660;13.226;2022-07-19T06:26:19;4.50;;;2.92;;
27223;SDS011;14965;50.660;13.226;2022-07-19T06:28:47;6.57;;;2.75;;
27223;SDS011;14965;50.660;13.226;2022-07-19T06:31:13;7.18;;;2.60;;
27223;SDS011;14965;50.660;13.226;2022-07-19T06:33:40;7.13;;;2.67;;
27223;SDS011;14965;50.660;13.226;2022-07-19T06:36:07;5.25;;;2.33;;
27223;SDS011;14965;50.660;13.226;2022-07-19T06:38:33;6.60;;;2.35;;
27223;SDS011;14965;50.660;13.226;2022-07-19T06:41:00;3.75;;;2.40;;
27223;SDS011;14965;50.660;13.226;2022-07-19T06:43:26;6.53;;;2.13;;
27223;SDS011;14965;50.660;13.226;2022-07-19T06:45:53;7.57;;;2.60;;
27223;SDS011;14965;50.660;13.226;2022-07-19T06:48:20;6.95;;;2.38;;
27223;SDS011;14965;50.660;13.226;2022-07-19T06:50:46;7.28;;;2.42;;
27223;SDS011;14965;50.660;13.226;2022-07-19T06:53:12;8.70;;;2.45;;
27223;SDS011;14965;50.660;13.226;2022-07-19T06:55:38;5.82;;;2.40;;
27223;SDS011;14965;50.660;13.226;2022-07-19T06:58:03;6.65;;;2.35;;
27223;SDS011;14965;50.660;13.226;2022-07-19T07:00:29;2.88;;;2.05;;
27223;SDS011;14965;50.660;13.226;2022-07-19T07:02:57;6.50;;;2.35;;
27223;SDS011;14965;50.660;13.226;2022-07-19T07:05:23;5.53;;;2.10;;
27223;SDS011;14965;50.660;13.226;2022-07-19T07:07:49;7.40;;;2.55;;
27223;SDS011;14965;50.660;13.226;2022-07-19T07:10:15;3.47;;;2.10;;
27223;SDS011;14965;50.660;13.226;2022-07-19T07:12:41;6.80;;;2.35;;
27223;SDS011;14965;50.660;13.226;2022-07-19T07:15:07;4.68;;;2.30;;
27223;SDS011;14965;50.660;13.226;2022-07-19T07:17:34;3.35;;;2.30;;
27223;SDS011;14965;50.660;13.226;2022-07-19T07:20:02;4.63;;;2.28;;
27223;SDS011;14965;50.660;13.226;2022-07-19T07:22:30;4.25;;;2.10;;
27223;SDS011;14965;50.660;13.226;2022-07-19T07:24:58;3.85;;;2.20;;
27223;SDS011;14965;50.660;13.226;2022-07-19T07:27:24;4.40;;;1.92;;
27223;SDS011;14965;50.660;13.226;2022-07-19T07:29:50;5.88;;;2.20;;
27223;SDS011;14965;50.660;13.226;2022-07-19T07:32:16;8.07;;;2.20;;
27223;SDS011;14965;50.660;13.226;2022-07-19T07:34:43;4.63;;;1.98;;
27223;SDS011;14965;50.660;13.226;2022-07-19T07:37:10;2.88;;;2.08;;
27223;SDS011;14965;50.660;13.226;2022-07-19T07:39:36;5.95;;;1.90;;
27223;SDS011;14965;50.660;13.226;2022-07-19T07:42:02;2.80;;;2.05;;
27223;SDS011;14965;50.660;13.226;2022-07-19T07:44:28;5.00;;;1.85;;
27223;SDS011;14965;50.660;13.226;2022-07-19T07:46:54;3.80;;;2.15;;
27223;SDS011;14965;50.660;13.226;2022-07-19T07:49:19;10.48;;;2.10;;
27223;SDS011;14965;50.660;13.226;2022-07-19T07:51:45;7.38;;;2.10;;
27223;SDS011;14965;50.660;13.226;2022-07-19T07:54:13;7.00;;;1.83;;
27223;SDS011;14965;50.660;13.226;2022-07-19T07:56:39;3.35;;;2.10;;
27223;SDS011;14965;50.660;13.226;2022-07-19T07:59:05;5.95;;;2.50;;
27223;SDS011;14965;50.660;13.226;2022-07-19T08:01:31;5.22;;;2.10;;
27223;SDS011;14965;50.660;13.226;2022-07-19T08:03:57;4.78;;;2.05;;
27223;SDS011;14965;50.660;13.226;2022-07-19T08:06:23;6.53;;;2.00;;
27223;SDS011;14965;50.660;13.226;2022-07-19T08:08:49;5.38;;;2.10;;
27223;SDS011;14965;50.660;13.226;2022-07-19T08:11:16;4.38;;;2.08;;
27223;SDS011;14965;50.660;13.226;2022-07-19T08:13:42;4.10;;;2.20;;
27223;SDS011;14965;50.660;13.226;2022-07-19T08:16:08;4.07;;;2.20;;
27223;SDS011;14965;50.660;13.226;2022-07-19T08:18:34;6.65;;;2.20;;
27223;SDS011;14965;50.660;13.226;2022-07-19T08:20:59;6.18;;;2.50;;
27223;SDS011;14965;50.660;13.226;2022-07-19T08:23:25;3.20;;;2.30;;
27223;SDS011;14965;50.660;13.226;2022-07-19T08:25:51;7.38;;;2.50;;
27223;SDS011;14965;50.660;13.226;2022-07-19T08:28:19;5.65;;;2.30;;
27223;SDS011;14965;50.660;13.226;2022-07-19T08:30:45;3.00;;;2.38;;
27223;SDS011;14965;50.660;13.226;2022-07-19T08:33:10;3.60;;;2.08;;
27223;SDS011;14965;50.660;13.226;2022-07-19T08:35:36;4.10;;;2.28;;
27223;SDS011;14965;50.660;13.226;2022-07-19T08:38:02;4.55;;;1.98;;
27223;SDS011;14965;50.660;13.226;2022-07-19T08:40:29;8.10;;;2.22;;
27223;SDS011;14965;50.660;13.226;2022-07-19T08:42:59;6.82;;;2.40;;
27223;SDS011;14965;50.660;13.226;2022-07-19T08:45:30;6.78;;;2.47;;
27223;SDS011;14965;50.660;13.226;2022-07-19T08:47:56;4.57;;;2.20;;
27223;SDS011;14965;50.660;13.226;2022-07-19T08:50:22;6.97;;;2.38;;
27223;SDS011;14965;50.660;13.226;2022-07-19T08:52:51;4.32;;;2.47;;
27223;SDS011;14965;50.660;13.226;2022-07-19T08:55:17;3.20;;;1.92;;
27223;SDS011;14965;50.660;13.226;2022-07-19T08:57:43;2.83;;;1.83;;
27223;SDS011;14965;50.660;13.226;2022-07-19T09:00:10;3.75;;;2.25;;
27223;SDS011;14965;50.660;13.226;2022-07-19T09:02:38;5.07;;;2.28;;
27223;SDS011;14965;50.660;13.226;2022-07-19T09:05:06;4.15;;;2.38;;
27223;SDS011;14965;50.660;13.226;2022-07-19T09:07:34;6.22;;;2.40;;
27223;SDS011;14965;50.660;13.226;2022-07-19T09:10:15;5.85;;;2.33;;
27223;SDS011;14965;50.660;13.226;2022-07-19T09:13:02;7.43;;;2.10;;
27223;SDS011;14965;50.660;13.226;2022-07-19T09:15:35;4.32;;;2.15;;
27223;SDS011;14965;50.660;13.226;2022-07-19T09:18:10;7.60;;;2.08;;
27223;SDS011;14965;50.660;13.226;2022-07-19T09:20:42;8.55;;;2.40;;
27223;SDS011;14965;50.660;13.226;2022-07-19T09:23:09;5.68;;;2.20;;
27223;SDS011;14965;50.660;13.226;2022-07-19T09:25:35;4.05;;;2.30;;
27223;SDS011;14965;50.660;13.226;2022-07-19T09:28:05;3.55;;;2.08;;
27223;SDS011;14965;50.660;13.226;2022-07-19T09:30:36;10.07;;;2.40;;
27223;SDS011;14965;50.660;13.226;2022-07-19T09:33:10;3.67;;;2.67;;
27223;SDS011;14965;50.660;13.226;2022-07-19T09:35:41;4.95;;;2.67;;
27223;SDS011;14965;50.660;13.226;2022-07-19T09:38:13;5.18;;;2.42;;
27223;SDS011;14965;50.660;13.226;2022-07-19T09:40:51;3.42;;;2.42;;
27223;SDS011;14965;50.660;13.226;2022-07-19T09:43:19;4.25;;;2.10;;
27223;SDS011;14965;50.660;13.226;2022-07-19T09:45:46;4.82;;;2.30;;
27223;SDS011;14965;50.660;13.226;2022-07-19T09:48:13;2.95;;;2.00;;
27223;SDS011;14965;50.660;13.226;2022-07-19T09:50:39;5.40;;;2.42;;
27223;SDS011;14965;50.660;13.226;2022-07-19T09:53:06;6.82;;;2.40;;
27223;SDS011;14965;50.660;13.226;2022-07-19T09:55:32;4.95;;;2.10;;
27223;SDS011;14965;50.660;13.226;2022-07-19T09:57:58;6.35;;;2.50;;
27223;SDS011;14965;50.660;13.226;2022-07-19T10:00:25;3.50;;;2.22;;
27223;SDS011;14965;50.660;13.226;2022-07-19T10:02:52;6.47;;;2.40;;
27223;SDS011;14965;50.660;13.226;2022-07-19T10:05:21;7.85;;;2.50;;
27223;SDS011;14965;50.660;13.226;2022-07-19T10:07:48;5.72;;;2.47;;
27223;SDS011;14965;50.660;13.226;2022-07-19T10:10:17;8.90;;;2.88;;
27223;SDS011;14965;50.660;13.226;2022-07-19T10:12:46;3.97;;;2.42;;
27223;SDS011;14965;50.660;13.226;2022-07-19T10:15:14;9.05;;;2.65;;
27223;SDS011;14965;50.660;13.226;2022-07-19T10:17:46;4.82;;;2.40;;
27223;SDS011;14965;50.660;13.226;2022-07-19T10:20:30;4.63;;;2.20;;
27223;SDS011;14965;50.660;13.226;2022-07-19T10:22:58;5.55;;;2.33;;
27223;SDS011;14965;50.660;13.226;2022-07-19T10:25:36;5.63;;;2.47;;
27223;SDS011;14965;50.660;13.226;2022-07-19T10:28:05;4.35;;;2.60;;
27223;SDS011;14965;50.660;13.226;2022-07-19T10:30:51;5.18;;;2.50;;
27223;SDS011;14965;50.660;13.226;2022-07-19T10:39:22;7.18;;;2.30;;
27223;SDS011;14965;50.660;13.226;2022-07-19T10:59:30;4.40;;;2.42;;
27223;SDS011;14965;50.660;13.226;2022-07-19T11:01:59;5.03;;;2.30;;
27223;SDS011;14965;50.660;13.226;2022-07-19T11:04:26;7.30;;;2.22;;
27223;SDS011;14965;50.660;13.226;2022-07-19T11:07:14;5.53;;;2.50;;
27223;SDS011;14965;50.660;13.226;2022-07-19T11:09:48;5.80;;;2.40;;
27223;SDS011;14965;50.660;13.226;2022-07-19T11:12:21;5.88;;;2.97;;
27223;SDS011;14965;50.660;13.226;2022-07-19T11:14:55;6.72;;;2.30;;
27223;SDS011;14965;50.660;13.226;2022-07-19T11:17:22;8.60;;;2.70;;
27223;SDS011;14965;50.660;13.226;2022-07-19T11:20:01;4.63;;;2.40;;
27223;SDS011;14965;50.660;13.226;2022-07-19T11:22:34;7.15;;;2.65;;
27223;SDS011;14965;50.660;13.226;2022-07-19T11:25:04;5.25;;;2.67;;
27223;SDS011;14965;50.660;13.226;2022-07-19T11:27:33;7.40;;;2.67;;
27223;SDS011;14965;50.660;13.226;2022-07-19T11:30:00;6.80;;;2.30;;
27223;SDS011;14965;50.660;13.226;2022-07-19T11:32:30;4.50;;;2.60;;
27223;SDS011;14965;50.660;13.226;2022-07-19T11:34:56;3.95;;;2.40;;
27223;SDS011;14965;50.660;13.226;2022-07-19T11:37:25;6.00;;;2.47;;
27223;SDS011;14965;50.660;13.226;2022-07-19T11:39:54;7.70;;;2.83;;
27223;SDS011;14965;50.660;13.226;2022-07-19T11:42:32;7.50;;;2.78;;
27223;SDS011;14965;50.660;13.226;2022-07-19T11:45:07;13.15;;;2.90;;
27223;SDS011;14965;50.660;13.226;2022-07-19T11:47:35;6.35;;;2.25;;
27223;SDS011;14965;50.660;13.226;2022-07-19T11:50:04;5.40;;;2.42;;
27223;SDS011;14965;50.660;13.226;2022-07-19T11:52:41;6.68;;;2.53;;
27223;SDS011;14965;50.660;13.226;2022-07-19T11:55:09;9.10;;;2.80;;
27223;SDS011;14965;50.660;13.226;2022-07-19T11:57:37;4.90;;;2.53;;
27223;SDS011;14965;50.660;13.226;2022-07-19T12:00:03;6.75;;;2.50;;
27223;SDS011;14965;50.660;13.226;2022-07-19T12:05:17;6.45;;;2.38;;
27223;SDS011;14965;50.660;13.226;2022-07-19T12:07:44;4.20;;;2.65;;
27223;SDS011;14965;50.660;13.226;2022-07-19T12:10:12;4.30;;;2.08;;
27223;SDS011;14965;50.660;13.226;2022-07-19T12:13:07;5.97;;;2.80;;
27223;SDS011;14965;50.660;13.226;2022-07-19T12:15:45;6.30;;;2.47;;
27223;SDS011;14965;50.660;13.226;2022-07-19T12:18:15;5.30;;;2.58;;
27223;SDS011;14965;50.660;13.226;2022-07-19T12:20:42;5.22;;;2.40;;
27223;SDS011;14965;50.660;13.226;2022-07-19T12:23:12;6.60;;;2.45;;
27223;SDS011;14965;50.660;13.226;2022-07-19T12:25:42;3.00;;;2.17;;
27223;SDS011;14965;50.660;13.226;2022-07-19T12:28:09;6.50;;;2.55;;
27223;SDS011;14965;50.660;13.226;2022-07-19T12:30:36;5.35;;;2.30;;
27223;SDS011;14965;50.660;13.226;2022-07-19T12:33:05;4.45;;;2.50;;
27223;SDS011;14965;50.660;13.226;2022-07-19T12:35:43;6.72;;;2.42;;
27223;SDS011;14965;50.660;13.226;2022-07-19T12:38:11;5.13;;;2.58;;
27223;SDS011;14965;50.660;13.226;2022-07-19T12:40:39;6.43;;;2.50;;
27223;SDS011;14965;50.660;13.226;2022-07-19T12:43:10;7.47;;;2.50;;
27223;SDS011;14965;50.660;13.226;2022-07-19T12:50:32;5.13;;;2.70;;
27223;SDS011;14965;50.660;13.226;2022-07-19T12:53:01;6.47;;;2.90;;
27223;SDS011;14965;50.660;13.226;2022-07-19T12:55:31;7.00;;;2.92;;
27223;SDS011;14965;50.660;13.226;2022-07-19T13:00:28;4.67;;;2.83;;
27223;SDS011;14965;50.660;13.226;2022-07-19T13:02:55;8.98;;;3.28;;
27223;SDS011;14965;50.660;13.226;2022-07-19T13:05:22;5.03;;;2.70;;
27223;SDS011;14965;50.660;13.226;2022-07-19T13:10:17;6.75;;;2.83;;
27223;SDS011;14965;50.660;13.226;2022-07-19T13:12:44;6.60;;;2.78;;
27223;SDS011;14965;50.660;13.226;2022-07-19T13:15:11;4.97;;;3.08;;
27223;SDS011;14965;50.660;13.226;2022-07-19T13:17:40;7.30;;;2.70;;
27223;SDS011;14965;50.660;13.226;2022-07-19T13:20:07;6.88;;;3.10;;
27223;SDS011;14965;50.660;13.226;2022-07-19T13:22:34;5.47;;;2.80;;
27223;SDS011;14965;50.660;13.226;2022-07-19T13:25:03;5.95;;;2.45;;
27223;SDS011;14965;50.660;13.226;2022-07-19T13:27:31;7.57;;;2.80;;
27223;SDS011;14965;50.660;13.226;2022-07-19T13:29:57;4.25;;;2.50;;
27223;SDS011;14965;50.660;13.226;2022-07-19T13:32:23;4.88;;;2.70;;
27223;SDS011;14965;50.660;13.226;2022-07-19T13:34:50;6.10;;;2.85;;
27223;SDS011;14965;50.660;13.226;2022-07-19T13:37:16;5.15;;;2.83;;
27223;SDS011;14965;50.660;13.226;2022-07-19T13:39:42;4.63;;;2.67;;
27223;SDS011;14965;50.660;13.226;2022-07-19T13:42:08;6.57;;;2.80;;
27223;SDS011;14965;50.660;13.226;2022-07-19T13:44:34;8.02;;;2.85;;
27223;SDS011;14965;50.660;13.226;2022-07-19T13:47:00;8.00;;;3.05;;
27223;SDS011;14965;50.660;13.226;2022-07-19T13:49:26;4.32;;;2.72;;
27223;SDS011;14965;50.660;13.226;2022-07-19T13:51:53;5.15;;;2.75;;
27223;SDS011;14965;50.660;13.226;2022-07-19T13:54:19;6.78;;;2.90;;
27223;SDS011;14965;50.660;13.226;2022-07-19T13:56:45;5.15;;;2.70;;
27223;SDS011;14965;50.660;13.226;2022-07-19T13:59:11;4.53;;;2.78;;
27223;SDS011;14965;50.660;13.226;2022-07-19T14:01:37;5.40;;;2.92;;
27223;SDS011;14965;50.660;13.226;2022-07-19T14:04:03;5.40;;;2.78;;
27223;SDS011;14965;50.660;13.226;2022-07-19T14:06:29;6.90;;;2.80;;
27223;SDS011;14965;50.660;13.226;2022-07-19T14:08:56;7.03;;;2.88;;
27223;SDS011;14965;50.660;13.226;2022-07-19T14:11:22;3.72;;;2.83;;
27223;SDS011;14965;50.660;13.226;2022-07-19T14:13:48;6.75;;;2.85;;
27223;SDS011;14965;50.660;13.226;2022-07-19T14:16:14;5.60;;;3.10;;
27223;SDS011;14965;50.660;13.226;2022-07-19T14:18:40;5.25;;;2.72;;
27223;SDS011;14965;50.660;13.226;2022-07-19T14:21:06;6.47;;;2.80;;
27223;SDS011;14965;50.660;13.226;2022-07-19T14:23:32;5.03;;;2.85;;
27223;SDS011;14965;50.660;13.226;2022-07-19T14:25:59;7.18;;;2.95;;
27223;SDS011;14965;50.660;13.226;2022-07-19T14:28:25;6.53;;;2.90;;
27223;SDS011;14965;50.660;13.226;2022-07-19T14:30:51;5.53;;;3.13;;
27223;SDS011;14965;50.660;13.226;2022-07-19T14:33:17;10.85;;;3.50;;
27223;SDS011;14965;50.660;13.226;2022-07-19T14:35:44;6.13;;;2.72;;
27223;SDS011;14965;50.660;13.226;2022-07-19T14:38:09;6.65;;;3.05;;
27223;SDS011;14965;50.660;13.226;2022-07-19T14:40:36;5.32;;;2.67;;
27223;SDS011;14965;50.660;13.226;2022-07-19T14:43:03;6.85;;;3.10;;
27223;SDS011;14965;50.660;13.226;2022-07-19T14:45:29;5.43;;;2.88;;
27223;SDS011;14965;50.660;13.226;2022-07-19T14:47:55;11.07;;;3.05;;
27223;SDS011;14965;50.660;13.226;2022-07-19T14:50:21;7.95;;;2.90;;
27223;SDS011;14965;50.660;13.226;2022-07-19T14:52:47;8.13;;;3.22;;
27223;SDS011;14965;50.660;13.226;2022-07-19T14:55:13;6.13;;;3.10;;
27223;SDS011;14965;50.660;13.226;2022-07-19T14:57:39;6.03;;;3.08;;
27223;SDS011;14965;50.660;13.226;2022-07-19T15:00:07;10.93;;;3.30;;
27223;SDS011;14965;50.660;13.226;2022-07-19T15:02:35;5.38;;;3.00;;
27223;SDS011;14965;50.660;13.226;2022-07-19T15:05:01;7.68;;;2.97;;
27223;SDS011;14965;50.660;13.226;2022-07-19T15:07:27;6.57;;;3.08;;
27223;SDS011;14965;50.660;13.226;2022-07-19T15:09:53;8.13;;;3.25;;